createdAt,value
2019-01-24T00:02:09.667Z,27.77
2019-01-24T00:04:40.719Z,33.97
2019-01-24T00:07:11.781Z,30.87
2019-01-24T00:09:42.900Z,35.17
2019-01-24T00:12:13.941Z,31.67
2019-01-24T00:14:45.030Z,27.83
2019-01-24T00:17:16.054Z,33.97
2019-01-24T00:19:47.201Z,30.60
2019-01-24T00:22:18.324Z,30.43
2019-01-24T00:24:49.372Z,30.57
2019-01-24T00:27:20.528Z,29.23
2019-01-24T00:29:51.590Z,29.23
2019-01-24T00:32:22.649Z,34.50
2019-01-24T00:34:53.769Z,33.47
2019-01-24T00:37:24.843Z,26.70
2019-01-24T00:39:56.042Z,30.83
2019-01-24T00:42:27.118Z,28.63
2019-01-24T00:44:58.163Z,31.23
2019-01-24T00:47:29.392Z,31.93
2019-01-24T00:50:00.505Z,31.67
2019-01-24T00:52:31.577Z,29.13
2019-01-24T00:55:02.636Z,31.67
2019-01-24T00:57:33.724Z,32.83
2019-01-24T01:00:08.416Z,32.30
2019-01-24T01:02:39.558Z,28.50
2019-01-24T01:05:11.981Z,30.23
2019-01-24T01:07:43.204Z,30.53
2019-01-24T01:10:16.183Z,32.53
2019-01-24T01:12:48.145Z,31.30
2019-01-24T01:15:20.689Z,29.17
2019-01-24T01:17:51.749Z,33.53
2019-01-24T01:20:23.930Z,31.60
2019-01-24T01:22:54.988Z,34.83
2019-01-24T01:25:27.211Z,33.60
2019-01-24T01:27:58.248Z,34.47
2019-01-24T01:30:29.339Z,34.30
2019-01-24T01:33:00.494Z,33.27
2019-01-24T01:35:31.668Z,31.20
2019-01-24T01:38:02.809Z,37.67
2019-01-24T01:40:33.861Z,38.90
2019-01-24T01:43:05.059Z,32.33
2019-01-24T01:45:36.128Z,33.13
2019-01-24T01:48:07.220Z,32.67
2019-01-24T01:50:38.314Z,31.33
2019-01-24T01:53:09.488Z,35.37
2019-01-24T01:55:40.560Z,31.40
2019-01-24T01:58:11.651Z,35.73
2019-01-24T02:00:43.042Z,36.23
2019-01-24T02:03:14.123Z,31.60
2019-01-24T02:05:45.194Z,33.97
2019-01-24T02:08:16.276Z,32.47
2019-01-24T02:10:47.337Z,36.07
2019-01-24T02:13:21.186Z,33.40
2019-01-24T02:15:52.245Z,36.40
2019-01-24T02:18:23.312Z,38.10
2019-01-24T02:20:54.411Z,32.37
2019-01-24T02:23:25.572Z,34.50
2019-01-24T02:25:56.747Z,30.80
2019-01-24T02:28:27.853Z,36.33
2019-01-24T02:30:58.987Z,28.63
2019-01-24T02:33:30.095Z,31.67
2019-01-24T02:36:01.165Z,30.57
2019-01-24T02:38:32.330Z,35.07
2019-01-24T02:41:03.412Z,35.03
2019-01-24T02:43:34.607Z,30.40
2019-01-24T02:46:06.036Z,37.50
2019-01-24T02:48:37.186Z,36.10
2019-01-24T02:51:08.286Z,31.37
2019-01-24T02:53:40.415Z,30.63
2019-01-24T02:56:11.492Z,28.57
2019-01-24T02:58:42.556Z,30.73
2019-01-24T03:01:13.729Z,32.60
2019-01-24T03:03:44.793Z,32.17
2019-01-24T03:06:15.871Z,33.93
2019-01-24T03:08:46.914Z,30.90
2019-01-24T03:11:18.015Z,37.57
2019-01-24T03:13:49.203Z,29.73
2019-01-24T03:16:20.246Z,33.83
2019-01-24T03:18:51.314Z,33.67
2019-01-24T03:21:22.381Z,31.20
2019-01-24T03:23:53.462Z,30.90
2019-01-24T03:26:24.531Z,31.30
2019-01-24T03:28:55.571Z,31.90
2019-01-24T03:31:26.629Z,31.27
2019-01-24T03:33:57.657Z,31.83
2019-01-24T03:36:28.729Z,31.00
2019-01-24T03:38:59.810Z,30.37
2019-01-24T03:41:30.871Z,34.27
2019-01-24T03:44:01.949Z,32.57
2019-01-24T03:46:32.969Z,25.77
2019-01-24T03:49:04.106Z,37.93
2019-01-24T03:51:35.133Z,32.83
2019-01-24T03:54:06.291Z,29.07
2019-01-24T03:56:37.642Z,36.47
2019-01-24T03:59:08.743Z,28.93
2019-01-24T04:01:39.794Z,34.00
2019-01-24T04:04:10.840Z,36.70
2019-01-24T04:06:41.905Z,27.17
2019-01-24T04:09:12.930Z,33.57
2019-01-24T04:11:44.074Z,27.80
2019-01-24T04:14:15.116Z,35.27
2019-01-24T04:16:46.236Z,33.60
2019-01-24T04:19:17.289Z,33.77
2019-01-24T04:21:48.325Z,30.80
2019-01-24T04:24:19.451Z,30.07
2019-01-24T04:26:50.493Z,36.80
2019-01-24T04:29:21.687Z,41.13
2019-01-24T04:31:52.851Z,34.77
2019-01-24T04:34:24.017Z,31.57
2019-01-24T04:36:55.129Z,34.03
2019-01-24T04:39:26.256Z,37.10
2019-01-24T04:41:57.312Z,37.73
2019-01-24T04:44:28.369Z,34.90
2019-01-24T04:46:59.411Z,32.00
2019-01-24T04:49:30.430Z,34.27
2019-01-24T04:52:01.489Z,34.23
2019-01-24T04:54:32.543Z,33.43
2019-01-24T04:57:03.605Z,37.20
2019-01-24T04:59:34.645Z,41.40
2019-01-24T05:02:05.717Z,32.77
2019-01-24T05:04:36.779Z,36.37
2019-01-24T05:07:07.878Z,38.27
2019-01-24T05:09:38.953Z,38.13
2019-01-24T05:12:10.002Z,34.57
2019-01-24T05:14:41.074Z,42.77
2019-01-24T05:17:12.305Z,38.60
2019-01-24T05:19:43.390Z,36.93
2019-01-24T05:22:14.511Z,38.20
2019-01-24T05:24:45.607Z,40.60
2019-01-24T05:27:16.719Z,41.07
2019-01-24T05:29:47.871Z,43.73
2019-01-24T05:32:18.979Z,40.93
2019-01-24T05:34:50.016Z,42.50
2019-01-24T05:37:21.110Z,46.13
2019-01-24T05:39:52.222Z,45.67
2019-01-24T05:42:23.285Z,37.47
2019-01-24T05:44:54.377Z,38.43
2019-01-24T05:47:25.465Z,40.57
2019-01-24T05:49:56.570Z,40.97
2019-01-24T05:52:27.724Z,43.00
2019-01-24T05:54:58.823Z,49.67
2019-01-24T05:57:29.983Z,44.23
2019-01-24T06:00:01.098Z,48.87
2019-01-24T06:02:32.187Z,40.83
2019-01-24T06:05:03.275Z,41.17
2019-01-24T06:07:34.489Z,42.37
2019-01-24T06:10:07.388Z,45.37
2019-01-24T06:12:38.534Z,45.23
2019-01-24T06:15:11.878Z,42.40
2019-01-24T06:17:42.919Z,39.80
2019-01-24T06:20:14.245Z,39.33
2019-01-24T06:22:45.378Z,41.53
2019-01-24T06:25:16.685Z,41.03
2019-01-24T06:27:47.777Z,37.20
2019-01-24T06:30:20.117Z,41.43
2019-01-24T06:32:51.263Z,40.53
2019-01-24T06:35:26.963Z,37.27
2019-01-24T06:37:58.316Z,38.60
2019-01-24T06:40:33.024Z,40.70
2019-01-24T06:43:04.538Z,45.93
2019-01-24T06:45:35.930Z,42.90
2019-01-24T06:48:07.883Z,40.80
2019-01-24T06:50:39.151Z,41.70
2019-01-24T06:53:10.316Z,39.53
2019-01-24T06:55:41.516Z,41.33
2019-01-24T06:58:12.588Z,39.63
2019-01-24T07:00:44.049Z,40.00
2019-01-24T07:03:15.150Z,33.37
2019-01-24T07:05:48.348Z,39.37
2019-01-24T07:08:20.756Z,44.33
2019-01-24T07:10:56.405Z,36.53
2019-01-24T07:13:27.832Z,51.27
2019-01-24T07:15:59.037Z,44.07
2019-01-24T07:18:30.319Z,40.17
2019-01-24T07:21:01.494Z,43.63
2019-01-24T07:23:34.031Z,40.60
2019-01-24T07:26:05.302Z,38.83
2019-01-24T07:28:36.712Z,43.07
2019-01-24T07:31:08.103Z,40.27
2019-01-24T07:33:39.711Z,39.53
2019-01-24T07:36:10.953Z,42.27
2019-01-24T07:38:45.664Z,35.27
2019-01-24T07:41:16.868Z,34.07
2019-01-24T07:43:48.130Z,42.53
2019-01-24T07:46:19.305Z,35.00
2019-01-24T07:48:50.364Z,40.37
2019-01-24T07:51:21.490Z,35.93
2019-01-24T07:53:52.657Z,34.33
2019-01-24T07:56:23.784Z,37.83
2019-01-24T07:58:54.850Z,38.73
2019-01-24T08:01:25.926Z,39.17
2019-01-24T08:03:57.081Z,43.67
2019-01-24T08:06:28.240Z,37.93
2019-01-24T08:08:59.323Z,38.23
2019-01-24T08:11:30.436Z,34.73
2019-01-24T08:14:01.581Z,31.17
2019-01-24T08:16:32.647Z,35.57
2019-01-24T08:19:03.804Z,34.80
2019-01-24T08:21:34.903Z,32.80
2019-01-24T08:24:06.144Z,31.63
2019-01-24T08:26:37.406Z,31.87
2019-01-24T08:29:08.679Z,28.47
2019-01-24T08:31:39.824Z,30.33
2019-01-24T08:34:11.053Z,32.80
2019-01-24T08:36:42.333Z,33.70
2019-01-24T08:39:13.595Z,32.77
2019-01-24T08:41:44.903Z,27.43
2019-01-24T08:44:16.207Z,29.53
2019-01-24T08:46:47.428Z,30.13
2019-01-24T08:49:18.971Z,28.60
2019-01-24T08:51:51.610Z,34.50
2019-01-24T08:54:22.809Z,32.80
2019-01-24T08:56:53.960Z,32.70
2019-01-24T08:59:29.424Z,35.60
2019-01-24T09:01:57.999Z,29.33
2019-01-24T09:04:29.171Z,29.23
2019-01-24T09:07:00.416Z,27.53
2019-01-24T09:09:31.611Z,30.93
2019-01-24T09:12:03.151Z,32.37
2019-01-24T09:14:34.444Z,30.17
2019-01-24T09:17:05.728Z,31.03
2019-01-24T09:19:36.926Z,31.23
2019-01-24T09:22:08.159Z,38.23
2019-01-24T09:24:39.281Z,32.13
2019-01-24T09:27:10.416Z,32.97
2019-01-24T09:29:41.624Z,32.53
2019-01-24T09:32:12.793Z,32.47
2019-01-24T09:34:44.007Z,36.33
2019-01-24T09:37:15.412Z,30.87
2019-01-24T09:39:46.658Z,36.90
2019-01-24T09:42:17.779Z,33.73
2019-01-24T09:44:48.961Z,29.23
2019-01-24T09:47:20.161Z,28.40
2019-01-24T09:49:51.291Z,35.27
2019-01-24T09:52:22.469Z,30.77
2019-01-24T09:54:53.707Z,31.80
2019-01-24T09:57:24.969Z,28.73
2019-01-24T09:59:56.238Z,34.53
2019-01-24T10:02:28.953Z,31.83
2019-01-24T10:05:00.240Z,29.33
2019-01-24T10:07:31.586Z,30.43
2019-01-24T10:10:02.815Z,32.57
2019-01-24T10:12:34.022Z,30.00
2019-01-24T10:15:07.207Z,29.80
2019-01-24T10:17:38.376Z,29.97
2019-01-24T10:20:11.972Z,28.80
2019-01-24T10:22:43.145Z,28.67
2019-01-24T10:25:23.004Z,33.43
2019-01-24T10:27:54.135Z,34.93
2019-01-24T10:30:26.167Z,34.80
2019-01-24T10:32:57.479Z,37.70
2019-01-24T10:35:28.653Z,38.20
2019-01-24T10:37:59.909Z,37.07
2019-01-24T10:40:32.380Z,34.37
2019-01-24T10:43:04.044Z,38.27
2019-01-24T10:45:35.212Z,40.80
2019-01-24T10:48:06.739Z,37.70
2019-01-24T10:50:37.879Z,40.57
2019-01-24T10:53:09.097Z,39.37
2019-01-24T10:55:40.364Z,36.40
2019-01-24T10:58:11.570Z,40.63
2019-01-24T11:00:43.562Z,31.30
2019-01-24T11:03:16.727Z,31.77
2019-01-24T11:05:47.940Z,27.87
2019-01-24T11:08:19.177Z,26.93
2019-01-24T11:10:50.511Z,29.87
2019-01-24T11:13:21.695Z,34.63
2019-01-24T11:15:53.303Z,29.67
2019-01-24T11:18:24.390Z,30.17
2019-01-24T11:20:55.519Z,28.73
2019-01-24T11:23:26.645Z,30.80
2019-01-24T11:25:57.805Z,28.43
2019-01-24T11:28:28.866Z,25.93
2019-01-24T11:30:59.993Z,26.03
2019-01-24T11:33:31.140Z,28.23
2019-01-24T11:36:02.226Z,28.30
2019-01-24T11:38:33.660Z,24.97
2019-01-24T11:41:04.829Z,26.13
2019-01-24T11:43:36.138Z,23.93
2019-01-24T11:46:07.746Z,28.40
2019-01-24T11:48:38.914Z,24.40
2019-01-24T11:51:10.025Z,26.70
2019-01-24T11:53:41.261Z,29.93
2019-01-24T11:56:12.430Z,26.87
2019-01-24T11:58:43.682Z,25.37
2019-01-24T12:01:14.831Z,22.70
2019-01-24T12:03:46.173Z,24.73
2019-01-24T12:06:17.433Z,25.50
2019-01-24T12:08:48.722Z,25.73
2019-01-24T12:11:20.095Z,23.80
2019-01-24T12:13:51.288Z,26.97
2019-01-24T12:16:22.530Z,29.23
2019-01-24T12:18:53.708Z,28.27
2019-01-24T12:21:24.822Z,24.17
2019-01-24T12:23:55.896Z,26.13
2019-01-24T12:26:27.056Z,28.43
2019-01-24T12:28:58.116Z,26.13
2019-01-24T12:31:29.238Z,28.37
2019-01-24T12:34:00.462Z,29.10
2019-01-24T12:36:31.637Z,26.03
2019-01-24T12:39:02.751Z,29.07
2019-01-24T12:41:34.323Z,31.23
2019-01-24T12:44:05.744Z,28.60
2019-01-24T12:46:36.809Z,30.80
2019-01-24T12:49:08.316Z,26.03
2019-01-24T12:51:39.431Z,31.30
2019-01-24T12:54:10.761Z,36.13
2019-01-24T12:56:41.884Z,35.10
2019-01-24T12:59:13.029Z,32.80
2019-01-24T13:01:44.195Z,33.40
2019-01-24T13:04:15.501Z,37.83
2019-01-24T13:06:46.581Z,38.67
2019-01-24T13:09:17.810Z,41.67
2019-01-24T13:11:49.256Z,43.93
2019-01-24T13:14:20.585Z,42.03
2019-01-24T13:16:51.692Z,40.67
2019-01-24T13:19:22.807Z,40.97
2019-01-24T13:21:54.012Z,35.87
2019-01-24T13:24:25.494Z,38.33
2019-01-24T13:26:56.699Z,38.57
2019-01-24T13:29:29.121Z,39.50
2019-01-24T13:32:00.320Z,37.03
2019-01-24T13:34:31.467Z,42.40
2019-01-24T13:37:02.697Z,33.47
2019-01-24T13:39:33.806Z,36.37
2019-01-24T13:42:06.900Z,35.33
2019-01-24T13:44:38.069Z,36.03
2019-01-24T13:47:09.157Z,38.50
2019-01-24T13:49:40.440Z,44.67
2019-01-24T13:52:12.628Z,32.37
2019-01-24T13:54:44.631Z,49.80
2019-01-24T13:57:15.703Z,40.07
2019-01-24T13:59:46.871Z,40.30
2019-01-24T14:02:18.002Z,35.03
2019-01-24T14:04:49.803Z,35.93
2019-01-24T14:07:20.950Z,33.47
2019-01-24T14:09:52.018Z,43.47
2019-01-24T14:12:23.218Z,42.33
2019-01-24T14:14:54.306Z,30.30
2019-01-24T14:17:25.664Z,38.60
2019-01-24T14:19:56.769Z,31.57
2019-01-24T14:22:28.043Z,32.77
2019-01-24T14:24:59.083Z,41.43
2019-01-24T14:27:30.347Z,31.20
2019-01-24T14:30:01.641Z,29.37
2019-01-24T14:32:32.937Z,36.57
2019-01-24T14:35:04.231Z,33.27
2019-01-24T14:37:39.815Z,32.40
2019-01-24T14:40:09.546Z,38.30
2019-01-24T14:42:40.664Z,27.20
2019-01-24T14:45:16.601Z,30.43
2019-01-24T14:47:47.842Z,36.17
2019-01-24T14:50:21.297Z,32.77
2019-01-24T14:52:52.549Z,29.67
2019-01-24T14:55:23.879Z,26.70
2019-01-24T14:57:55.079Z,30.23
2019-01-24T15:00:35.037Z,27.87
2019-01-24T15:03:06.705Z,39.90
2019-01-24T15:05:37.870Z,34.20
2019-01-24T15:08:09.209Z,36.73
2019-01-24T15:10:40.471Z,38.57
2019-01-24T15:16:11.016Z,36.10
2019-01-24T15:18:46.081Z,29.70
2019-01-24T15:21:18.438Z,31.40
2019-01-24T15:23:50.605Z,27.20
2019-01-24T15:26:23.388Z,29.70
2019-01-24T15:28:54.753Z,31.40
2019-01-24T15:31:26.103Z,27.83
2019-01-24T15:33:58.444Z,31.60
2019-01-24T15:36:29.784Z,28.97
2019-01-24T15:39:01.037Z,25.27
2019-01-24T15:41:33.783Z,31.20
2019-01-24T15:44:05.208Z,33.87
2019-01-24T15:46:36.491Z,28.27
2019-01-24T15:49:07.683Z,27.33
2019-01-24T15:51:38.835Z,29.23
2019-01-24T15:54:09.934Z,31.73
2019-01-24T15:56:41.171Z,27.70
2019-01-24T15:59:12.330Z,28.87
2019-01-24T16:01:43.514Z,33.27
2019-01-24T16:04:19.751Z,28.60
2019-01-24T16:06:47.817Z,29.63
2019-01-24T16:09:18.969Z,32.77
2019-01-24T16:11:50.130Z,30.57
2019-01-24T16:14:21.260Z,31.17
2019-01-24T16:16:52.465Z,36.70
2019-01-24T16:19:24.673Z,40.60
2019-01-24T16:21:55.801Z,37.33
2019-01-24T16:24:26.895Z,30.27
2019-01-24T16:26:58.130Z,27.77
2019-01-24T16:29:29.250Z,32.10
2019-01-24T16:32:00.461Z,33.40
2019-01-24T16:34:34.520Z,33.53
2019-01-24T16:37:05.763Z,34.77
2019-01-24T16:39:36.901Z,31.90
2019-01-24T16:42:08.243Z,30.63
2019-01-24T16:44:39.643Z,32.70
2019-01-24T16:47:10.571Z,30.00
2019-01-24T16:49:42.924Z,32.10
2019-01-24T16:52:14.204Z,30.37
2019-01-24T16:54:45.392Z,33.70
2019-01-24T16:57:16.475Z,29.77
2019-01-24T16:59:47.743Z,34.40
2019-01-24T17:02:18.973Z,30.47
2019-01-24T17:04:50.248Z,26.53
2019-01-24T17:07:21.539Z,30.43
2019-01-24T17:09:54.366Z,29.67
2019-01-24T17:12:25.516Z,29.17
2019-01-24T17:14:56.764Z,27.33
2019-01-24T17:17:29.008Z,30.27
2019-01-24T17:20:00.286Z,32.00
2019-01-24T17:22:31.394Z,29.33
2019-01-24T17:25:02.627Z,34.37
2019-01-24T17:27:33.766Z,31.67
2019-01-24T17:30:07.698Z,44.43
2019-01-24T17:32:40.229Z,45.73
2019-01-24T17:35:20.470Z,44.50
2019-01-24T17:37:51.625Z,35.93
2019-01-24T17:40:27.591Z,45.23
2019-01-24T17:42:58.900Z,43.60
2019-01-24T17:45:30.174Z,41.10
2019-01-24T17:48:01.439Z,45.43
2019-01-24T17:50:32.742Z,48.27
2019-01-24T17:53:04.118Z,55.23
2019-01-24T17:55:40.736Z,48.37
2019-01-24T17:58:12.724Z,48.13
2019-01-24T18:00:50.939Z,49.33
2019-01-24T18:03:22.075Z,47.20
2019-01-24T18:05:53.242Z,46.30
2019-01-24T18:08:30.986Z,45.43
2019-01-24T18:10:57.267Z,46.30
2019-01-24T18:13:32.416Z,45.90
2019-01-24T18:16:05.397Z,47.47
2019-01-24T18:18:38.014Z,49.60
2019-01-24T18:21:09.343Z,49.03
2019-01-24T18:23:40.782Z,48.50
2019-01-24T18:26:11.954Z,48.07
2019-01-24T18:28:43.105Z,52.90
2019-01-24T18:31:14.664Z,56.47
2019-01-24T18:33:45.843Z,49.27
2019-01-24T18:36:17.152Z,57.27
2019-01-24T18:38:48.289Z,51.80
2019-01-24T18:41:19.582Z,57.43
2019-01-24T18:43:50.782Z,57.73
2019-01-24T18:46:22.097Z,53.07
2019-01-24T18:48:53.745Z,52.27
2019-01-24T18:51:25.049Z,51.97
2019-01-24T18:53:56.291Z,50.30
2019-01-24T18:56:27.522Z,55.37
2019-01-24T18:58:58.880Z,58.00
2019-01-24T19:01:30.279Z,60.57
2019-01-24T19:04:01.730Z,60.97
2019-01-24T19:06:33.023Z,65.07
2019-01-24T19:09:05.949Z,66.10
2019-01-24T19:11:38.170Z,66.97
2019-01-24T19:14:09.441Z,58.07
2019-01-24T19:16:41.214Z,56.90
2019-01-24T19:19:12.437Z,62.53
2019-01-24T19:21:43.803Z,64.90
2019-01-24T19:24:15.843Z,64.33
2019-01-24T19:26:47.130Z,59.07
2019-01-24T19:29:18.380Z,64.93
2019-01-24T19:31:49.626Z,58.43
2019-01-24T19:34:21.023Z,63.00
2019-01-24T19:36:52.291Z,64.30
2019-01-24T19:39:23.719Z,58.77
2019-01-24T19:41:55.022Z,61.60
2019-01-24T19:44:26.400Z,59.43
2019-01-24T19:46:57.711Z,53.57
2019-01-24T19:49:28.823Z,58.83
2019-01-24T19:52:00.163Z,54.27
2019-01-24T19:54:31.662Z,55.63
2019-01-24T19:57:03.682Z,47.87
2019-01-24T19:59:35.185Z,54.93
2019-01-24T20:02:06.932Z,49.53
2019-01-24T20:04:38.328Z,52.17
2019-01-24T20:07:09.660Z,49.13
2019-01-24T20:09:42.087Z,47.53
2019-01-24T20:12:13.436Z,48.97
2019-01-24T20:14:44.741Z,51.37
2019-01-24T20:17:18.293Z,55.47
2019-01-24T20:19:49.523Z,51.00
2019-01-24T20:22:20.765Z,51.23
2019-01-24T20:24:52.232Z,49.97
2019-01-24T20:27:23.643Z,58.33
2019-01-24T20:29:54.870Z,50.30
2019-01-24T20:32:26.000Z,53.80
2019-01-24T20:34:57.284Z,58.23
2019-01-24T20:37:28.496Z,49.80
2019-01-24T20:40:01.703Z,54.00
2019-01-24T20:42:32.956Z,49.43
2019-01-24T20:45:04.656Z,46.83
2019-01-24T20:47:35.986Z,56.03
2019-01-24T20:50:08.510Z,52.47
2019-01-24T20:52:39.820Z,43.70
2019-01-24T20:55:11.885Z,42.03
2019-01-24T20:57:42.990Z,40.73
2019-01-24T21:00:19.726Z,42.00
2019-01-24T21:02:51.359Z,43.37
2019-01-24T21:05:23.100Z,44.70
2019-01-24T21:07:54.516Z,46.57
2019-01-24T21:10:27.012Z,44.10
2019-01-24T21:12:59.596Z,36.37
2019-01-24T21:15:32.116Z,41.80
2019-01-24T21:18:03.388Z,42.50
2019-01-24T21:20:34.640Z,36.23
2019-01-24T21:23:07.150Z,42.60
2019-01-24T21:25:39.027Z,38.13
2019-01-24T21:28:10.365Z,39.70
2019-01-24T21:30:41.666Z,38.63
2019-01-24T21:33:12.882Z,36.93
2019-01-24T21:35:44.426Z,38.50
2019-01-24T21:38:15.960Z,36.40
2019-01-24T21:40:47.332Z,39.97
2019-01-24T21:43:18.761Z,38.87
2019-01-24T21:45:50.077Z,38.33
2019-01-24T21:48:21.807Z,38.37
2019-01-24T21:50:53.026Z,36.03
2019-01-24T21:53:24.330Z,36.87
2019-01-24T21:55:55.510Z,35.23
2019-01-24T21:58:27.152Z,36.00
2019-01-24T22:00:58.353Z,37.37
2019-01-24T22:03:29.885Z,34.37
2019-01-24T22:06:01.460Z,35.97
2019-01-24T22:08:32.997Z,31.70
2019-01-24T22:11:04.566Z,32.20
2019-01-24T22:13:36.066Z,29.13
2019-01-24T22:16:08.393Z,33.50
2019-01-24T22:18:39.729Z,33.10
2019-01-24T22:21:10.935Z,28.23
2019-01-24T22:23:42.265Z,33.13
2019-01-24T22:26:13.368Z,28.37
2019-01-24T22:28:45.162Z,33.13
2019-01-24T22:31:16.291Z,32.00
2019-01-24T22:33:47.367Z,33.10
2019-01-24T22:36:18.482Z,27.70
2019-01-24T22:38:49.670Z,29.07
2019-01-24T22:41:20.773Z,35.03
2019-01-24T22:43:51.900Z,27.03
2019-01-24T22:46:23.106Z,29.70
2019-01-24T22:48:54.224Z,32.20
2019-01-24T22:51:25.376Z,30.00
2019-01-24T22:53:56.505Z,31.17
2019-01-24T22:56:27.582Z,32.17
2019-01-24T22:58:58.670Z,28.70
2019-01-24T23:02:02.268Z,26.03
2019-01-24T23:04:33.368Z,29.77
2019-01-24T23:07:04.519Z,27.27
2019-01-24T23:09:44.074Z,31.60
2019-01-24T23:12:11.152Z,31.97
2019-01-24T23:14:42.241Z,34.80
2019-01-24T23:17:13.395Z,37.13
2019-01-24T23:19:44.528Z,33.60
2019-01-24T23:22:15.673Z,34.00
2019-01-24T23:24:46.750Z,33.07
2019-01-24T23:27:17.935Z,34.93
2019-01-24T23:29:49.041Z,34.73
2019-01-24T23:32:20.381Z,36.53
2019-01-24T23:34:51.595Z,38.60
2019-01-24T23:37:22.762Z,38.90
2019-01-24T23:39:53.926Z,40.33
2019-01-24T23:42:25.041Z,41.70
2019-01-24T23:44:56.225Z,46.33
2019-01-24T23:47:27.336Z,45.10
2019-01-24T23:49:58.550Z,42.53
2019-01-24T23:52:29.766Z,46.30
2019-01-24T23:55:00.911Z,49.23
2019-01-24T23:57:32.001Z,54.40
